sensor_id;sensor_type;location;lat;lon;timestamp;pressure;altitude;pressure_sealevel;temperature;humidity
11710;BME280;5911;51.036;6.972;2023-02-15T00:00:06;102126.34;;;7.23;93.68
11710;BME280;5911;51.036;6.972;2023-02-15T00:02:45;102103.94;;;7.16;93.01
11710;BME280;5911;51.036;6.972;2023-02-15T00:05:14;102121.09;;;7.23;93.53
11710;BME280;5911;51.036;6.972;2023-02-15T00:07:42;102110.63;;;7.23;93.01
11710;BME280;5911;51.036;6.972;2023-02-15T00:10:11;102110.75;;;7.20;92.88
11710;BME280;5911;51.036;6.972;2023-02-15T00:12:40;102113.38;;;7.20;92.93
11710;BME280;5911;51.036;6.972;2023-02-15T00:15:08;102107.50;;;7.15;93.18
11710;BME280;5911;51.036;6.972;2023-02-15T00:17:37;102104.63;;;7.19;93.33
11710;BME280;5911;51.036;6.972;2023-02-15T00:20:06;102108.13;;;7.20;93.89
11710;BME280;5911;51.036;6.972;2023-02-15T00:22:34;102104.72;;;7.18;93.92
11710;BME280;5911;51.036;6.972;2023-02-15T00:25:02;102096.44;;;7.06;93.56
11710;BME280;5911;51.036;6.972;2023-02-15T00:27:32;102097.84;;;7.15;94.58
11710;BME280;5911;51.036;6.972;2023-02-15T00:30:02;102097.13;;;7.12;94.35
11710;BME280;5911;51.036;6.972;2023-02-15T00:32:30;102105.06;;;7.10;93.80
11710;BME280;5911;51.036;6.972;2023-02-15T00:34:58;102101.75;;;7.05;94.29
11710;BME280;5911;51.036;6.972;2023-02-15T00:37:26;102084.72;;;6.95;93.79
11710;BME280;5911;51.036;6.972;2023-02-15T00:39:53;102106.16;;;7.04;95.10
11710;BME280;5911;51.036;6.972;2023-02-15T00:42:21;102102.63;;;7.05;94.84
11710;BME280;5911;51.036;6.972;2023-02-15T00:44:52;102098.22;;;7.06;95.67
11710;BME280;5911;51.036;6.972;2023-02-15T00:47:20;102099.19;;;7.03;94.38
11710;BME280;5911;51.036;6.972;2023-02-15T00:49:55;102100.06;;;7.04;94.86
11710;BME280;5911;51.036;6.972;2023-02-15T00:52:23;102093.09;;;7.03;94.68
11710;BME280;5911;51.036;6.972;2023-02-15T00:54:54;102091.63;;;6.97;95.47
11710;BME280;5911;51.036;6.972;2023-02-15T00:57:33;102096.56;;;7.03;95.38
11710;BME280;5911;51.036;6.972;2023-02-15T01:00:03;102095.94;;;6.98;95.11
11710;BME280;5911;51.036;6.972;2023-02-15T01:02:32;102086.50;;;6.94;94.05
11710;BME280;5911;51.036;6.972;2023-02-15T01:05:02;102075.56;;;6.85;94.77
11710;BME280;5911;51.036;6.972;2023-02-15T01:07:30;102095.47;;;6.89;94.37
11710;BME280;5911;51.036;6.972;2023-02-15T01:09:58;102089.66;;;6.82;94.79
11710;BME280;5911;51.036;6.972;2023-02-15T01:12:26;102081.66;;;6.85;94.80
11710;BME280;5911;51.036;6.972;2023-02-15T01:14:54;102089.38;;;6.88;95.23
11710;BME280;5911;51.036;6.972;2023-02-15T01:17:26;102080.84;;;6.83;95.17
11710;BME280;5911;51.036;6.972;2023-02-15T01:19:54;102089.47;;;6.87;95.91
11710;BME280;5911;51.036;6.972;2023-02-15T01:22:22;102086.97;;;6.84;95.56
11710;BME280;5911;51.036;6.972;2023-02-15T01:24:50;102085.56;;;6.75;95.32
11710;BME280;5911;51.036;6.972;2023-02-15T01:27:20;102083.59;;;6.80;95.45
11710;BME280;5911;51.036;6.972;2023-02-15T01:29:48;102075.75;;;6.80;95.70
11710;BME280;5911;51.036;6.972;2023-02-15T01:32:16;102074.03;;;6.79;95.16
11710;BME280;5911;51.036;6.972;2023-02-15T01:34:45;102075.88;;;6.77;95.76
11710;BME280;5911;51.036;6.972;2023-02-15T01:37:13;102073.38;;;6.74;95.27
11710;BME280;5911;51.036;6.972;2023-02-15T01:39:45;102068.91;;;6.76;95.62
11710;BME280;5911;51.036;6.972;2023-02-15T01:42:13;102074.94;;;6.78;95.96
11710;BME280;5911;51.036;6.972;2023-02-15T01:44:48;102070.50;;;6.80;96.32
11710;BME280;5911;51.036;6.972;2023-02-15T01:47:25;102060.19;;;6.76;96.50
11710;BME280;5911;51.036;6.972;2023-02-15T01:50:01;102065.19;;;6.82;96.65
11710;BME280;5911;51.036;6.972;2023-02-15T01:52:30;102063.53;;;6.79;96.86
11710;BME280;5911;51.036;6.972;2023-02-15T01:55:00;102052.53;;;6.71;96.77
11710;BME280;5911;51.036;6.972;2023-02-15T01:57:33;102059.34;;;6.75;96.69
11710;BME280;5911;51.036;6.972;2023-02-15T02:00:07;102050.50;;;6.78;97.00
11710;BME280;5911;51.036;6.972;2023-02-15T02:02:38;102046.44;;;6.70;96.37
11710;BME280;5911;51.036;6.972;2023-02-15T02:05:08;102053.19;;;6.76;96.35
11710;BME280;5911;51.036;6.972;2023-02-15T02:07:41;102047.09;;;6.76;96.14
11710;BME280;5911;51.036;6.972;2023-02-15T02:10:12;102037.00;;;6.66;96.07
11710;BME280;5911;51.036;6.972;2023-02-15T02:12:42;102049.75;;;6.74;96.75
11710;BME280;5911;51.036;6.972;2023-02-15T02:15:12;102039.44;;;6.71;97.50
11710;BME280;5911;51.036;6.972;2023-02-15T02:17:53;102042.97;;;6.70;96.63
11710;BME280;5911;51.036;6.972;2023-02-15T02:20:42;102037.97;;;6.64;96.83
11710;BME280;5911;51.036;6.972;2023-02-15T02:23:24;102041.91;;;6.74;97.30
11710;BME280;5911;51.036;6.972;2023-02-15T02:26:23;102030.00;;;6.67;96.57
11710;BME280;5911;51.036;6.972;2023-02-15T02:35:23;102021.25;;;6.66;97.52
11710;BME280;5911;51.036;6.972;2023-02-15T02:38:02;102018.72;;;6.65;97.50
11710;BME280;5911;51.036;6.972;2023-02-15T02:40:52;102015.69;;;6.54;97.46
11710;BME280;5911;51.036;6.972;2023-02-15T02:43:30;102017.25;;;6.58;96.76
11710;BME280;5911;51.036;6.972;2023-02-15T02:46:05;102015.56;;;6.57;97.43
11710;BME280;5911;51.036;6.972;2023-02-15T02:48:37;102009.66;;;6.52;97.81
11710;BME280;5911;51.036;6.972;2023-02-15T02:51:07;102001.81;;;6.52;97.79
11710;BME280;5911;51.036;6.972;2023-02-15T02:53:35;102005.41;;;6.49;97.15
11710;BME280;5911;51.036;6.972;2023-02-15T02:56:10;101997.41;;;6.52;97.72
11710;BME280;5911;51.036;6.972;2023-02-15T02:58:47;101995.03;;;6.46;96.94
11710;BME280;5911;51.036;6.972;2023-02-15T03:01:32;101996.75;;;6.47;97.86
11710;BME280;5911;51.036;6.972;2023-02-15T03:04:07;101994.19;;;6.46;97.39
11710;BME280;5911;51.036;6.972;2023-02-15T03:06:40;101989.97;;;6.42;97.08
11710;BME280;5911;51.036;6.972;2023-02-15T03:09:18;101986.38;;;6.44;97.58
11710;BME280;5911;51.036;6.972;2023-02-15T03:11:49;101985.47;;;6.45;98.51
11710;BME280;5911;51.036;6.972;2023-02-15T03:14:19;101984.91;;;6.39;97.34
11710;BME280;5911;51.036;6.972;2023-02-15T03:16:48;101970.22;;;6.34;97.95
11710;BME280;5911;51.036;6.972;2023-02-15T03:19:20;101984.91;;;6.39;98.68
11710;BME280;5911;51.036;6.972;2023-02-15T03:21:56;101973.50;;;6.40;98.21
11710;BME280;5911;51.036;6.972;2023-02-15T03:24:33;101970.16;;;6.36;98.91
11710;BME280;5911;51.036;6.972;2023-02-15T03:27:07;101978.88;;;6.37;98.06
11710;BME280;5911;51.036;6.972;2023-02-15T03:29:38;101971.91;;;6.35;99.57
11710;BME280;5911;51.036;6.972;2023-02-15T03:32:08;101969.41;;;6.32;98.28
11710;BME280;5911;51.036;6.972;2023-02-15T03:34:38;101965.88;;;6.33;99.17
11710;BME280;5911;51.036;6.972;2023-02-15T03:37:11;101964.19;;;6.32;99.14
11710;BME280;5911;51.036;6.972;2023-02-15T03:39:45;101968.63;;;6.30;98.80
11710;BME280;5911;51.036;6.972;2023-02-15T03:42:22;101971.19;;;6.32;98.88
11710;BME280;5911;51.036;6.972;2023-02-15T03:44:56;101971.31;;;6.29;99.37
11710;BME280;5911;51.036;6.972;2023-02-15T03:47:27;101972.44;;;6.23;98.71
11710;BME280;5911;51.036;6.972;2023-02-15T03:50:00;101958.38;;;6.26;99.04
11710;BME280;5911;51.036;6.972;2023-02-15T03:52:31;101962.88;;;6.22;97.98
11710;BME280;5911;51.036;6.972;2023-02-15T03:54:59;101966.34;;;6.23;98.85
11710;BME280;5911;51.036;6.972;2023-02-15T03:57:28;101962.00;;;6.22;99.67
11710;BME280;5911;51.036;6.972;2023-02-15T04:00:24;101968.22;;;6.19;98.42
11710;BME280;5911;51.036;6.972;2023-02-15T04:03:22;101947.91;;;6.04;98.06
11710;BME280;5911;51.036;6.972;2023-02-15T04:05:52;101964.88;;;6.16;98.92
11710;BME280;5911;51.036;6.972;2023-02-15T04:08:21;101954.69;;;6.10;98.53
11710;BME280;5911;51.036;6.972;2023-02-15T04:11:09;101968.22;;;6.19;99.65
11710;BME280;5911;51.036;6.972;2023-02-15T04:13:36;101973.47;;;6.19;98.30
11710;BME280;5911;51.036;6.972;2023-02-15T04:16:04;101967.31;;;6.20;98.37
11710;BME280;5911;51.036;6.972;2023-02-15T04:18:36;101966.47;;;6.20;99.61
11710;BME280;5911;51.036;6.972;2023-02-15T04:21:25;101963.84;;;6.20;99.59
11710;BME280;5911;51.036;6.972;2023-02-15T04:24:12;101961.41;;;6.15;98.92
11710;BME280;5911;51.036;6.972;2023-02-15T04:26:59;101967.44;;;6.17;98.78
11710;BME280;5911;51.036;6.972;2023-02-15T04:29:28;101966.59;;;6.17;98.76
11710;BME280;5911;51.036;6.972;2023-02-15T04:31:57;101965.06;;;6.11;99.28
11710;BME280;5911;51.036;6.972;2023-02-15T04:34:25;101961.69;;;6.09;98.11
11710;BME280;5911;51.036;6.972;2023-02-15T04:36:53;101960.03;;;6.07;98.08
11710;BME280;5911;51.036;6.972;2023-02-15T04:39:22;101962.66;;;6.07;98.58
11710;BME280;5911;51.036;6.972;2023-02-15T04:41:53;101953.38;;;5.98;98.53
11710;BME280;5911;51.036;6.972;2023-02-15T04:44:20;101961.75;;;6.08;98.77
11710;BME280;5911;51.036;6.972;2023-02-15T04:46:48;101966.19;;;6.06;98.84
11710;BME280;5911;51.036;6.972;2023-02-15T04:49:16;101960.22;;;6.02;98.63
11710;BME280;5911;51.036;6.972;2023-02-15T04:51:44;101958.63;;;5.98;98.79
11710;BME280;5911;51.036;6.972;2023-02-15T04:54:12;101947.25;;;5.99;99.86
11710;BME280;5911;51.036;6.972;2023-02-15T04:56:41;101950.78;;;5.98;98.17
11710;BME280;5911;51.036;6.972;2023-02-15T04:59:09;101950.66;;;6.01;99.08
11710;BME280;5911;51.036;6.972;2023-02-15T05:01:37;101927.59;;;5.89;99.34
11710;BME280;5911;51.036;6.972;2023-02-15T05:04:05;101943.06;;;5.95;99.28
11710;BME280;5911;51.036;6.972;2023-02-15T05:06:34;101943.19;;;5.92;98.62
11710;BME280;5911;51.036;6.972;2023-02-15T05:09:02;101948.31;;;5.95;99.12
11710;BME280;5911;51.036;6.972;2023-02-15T05:11:30;101951.94;;;5.91;98.68
11710;BME280;5911;51.036;6.972;2023-02-15T05:13:59;101946.59;;;5.94;98.84
11710;BME280;5911;51.036;6.972;2023-02-15T05:16:27;101932.91;;;5.86;99.15
11710;BME280;5911;51.036;6.972;2023-02-15T05:18:55;101944.09;;;5.91;98.55
11710;BME280;5911;51.036;6.972;2023-02-15T05:21:23;101922.16;;;5.72;98.59
11710;BME280;5911;51.036;6.972;2023-02-15T05:23:51;101950.34;;;5.87;99.45
11710;BME280;5911;51.036;6.972;2023-02-15T05:26:22;101942.53;;;5.85;99.55
11710;BME280;5911;51.036;6.972;2023-02-15T05:29:10;101945.41;;;5.79;98.96
11710;BME280;5911;51.036;6.972;2023-02-15T05:31:38;101936.44;;;5.85;99.79
11710;BME280;5911;51.036;6.972;2023-02-15T05:34:06;101925.38;;;5.78;99.46
11710;BME280;5911;51.036;6.972;2023-02-15T05:36:34;101931.41;;;5.80;99.44
11710;BME280;5911;51.036;6.972;2023-02-15T05:39:02;101935.72;;;5.81;99.55
11710;BME280;5911;51.036;6.972;2023-02-15T05:41:30;101930.69;;;5.77;98.95
11710;BME280;5911;51.036;6.972;2023-02-15T05:43:58;101929.88;;;5.75;98.50
11710;BME280;5911;51.036;6.972;2023-02-15T05:46:27;101941.28;;;5.74;98.20
11710;BME280;5911;51.036;6.972;2023-02-15T05:48:55;101927.22;;;5.76;98.26
11710;BME280;5911;51.036;6.972;2023-02-15T05:51:23;101936.72;;;5.79;99.02
11710;BME280;5911;51.036;6.972;2023-02-15T05:53:50;101932.44;;;5.76;99.11
11710;BME280;5911;51.036;6.972;2023-02-15T05:56:18;101942.19;;;5.73;99.10
11710;BME280;5911;51.036;6.972;2023-02-15T05:59:11;101935.25;;;5.72;98.42
11710;BME280;5911;51.036;6.972;2023-02-15T06:01:41;101930.97;;;5.69;98.55
11710;BME280;5911;51.036;6.972;2023-02-15T06:04:08;101938.03;;;5.67;98.86
11710;BME280;5911;51.036;6.972;2023-02-15T06:06:36;101933.72;;;5.66;98.83
11710;BME280;5911;51.036;6.972;2023-02-15T06:09:04;101894.47;;;5.44;98.42
11710;BME280;5911;51.036;6.972;2023-02-15T06:11:31;101929.28;;;5.68;97.96
11710;BME280;5911;51.036;6.972;2023-02-15T06:13:59;101923.44;;;5.61;97.99
11710;BME280;5911;51.036;6.972;2023-02-15T06:16:27;101925.38;;;5.56;98.09
11710;BME280;5911;51.036;6.972;2023-02-15T06:18:56;101924.34;;;5.60;99.08
11710;BME280;5911;51.036;6.972;2023-02-15T06:21:25;101932.16;;;5.62;99.20
11710;BME280;5911;51.036;6.972;2023-02-15T06:23:53;101928.97;;;5.54;99.36
11710;BME280;5911;51.036;6.972;2023-02-15T06:26:24;101895.09;;;5.29;99.39
11710;BME280;5911;51.036;6.972;2023-02-15T06:28:54;101942.06;;;5.54;99.32
11710;BME280;5911;51.036;6.972;2023-02-15T06:31:22;101943.03;;;5.51;99.48
11710;BME280;5911;51.036;6.972;2023-02-15T06:33:50;101948.94;;;5.56;99.48
11710;BME280;5911;51.036;6.972;2023-02-15T06:36:20;101942.06;;;5.54;99.32
11710;BME280;5911;51.036;6.972;2023-02-15T06:38:48;101928.59;;;5.41;99.41
11710;BME280;5911;51.036;6.972;2023-02-15T06:41:16;101925.13;;;5.41;98.84
11710;BME280;5911;51.036;6.972;2023-02-15T06:43:44;101948.41;;;5.48;98.78
11710;BME280;5911;51.036;6.972;2023-02-15T06:46:11;101954.28;;;5.53;98.96
11710;BME280;5911;51.036;6.972;2023-02-15T06:48:39;101950.09;;;5.49;99.02
11710;BME280;5911;51.036;6.972;2023-02-15T06:51:10;101949.38;;;5.46;98.88
11710;BME280;5911;51.036;6.972;2023-02-15T06:53:39;101960.56;;;5.49;98.81
11710;BME280;5911;51.036;6.972;2023-02-15T06:56:10;101956.41;;;5.44;99.71
11710;BME280;5911;51.036;6.972;2023-02-15T06:58:38;101956.06;;;5.53;99.46
11710;BME280;5911;51.036;6.972;2023-02-15T07:01:07;101957.00;;;5.50;98.96
11710;BME280;5911;51.036;6.972;2023-02-15T07:03:35;101947.53;;;5.48;98.04
11710;BME280;5911;51.036;6.972;2023-02-15T07:06:04;101940.09;;;5.37;98.53
11710;BME280;5911;51.036;6.972;2023-02-15T07:08:44;101923.75;;;5.32;98.88
11710;BME280;5911;51.036;6.972;2023-02-15T07:11:12;101938.84;;;5.47;99.25
11710;BME280;5911;51.036;6.972;2023-02-15T07:14:00;101927.88;;;5.38;99.35
11710;BME280;5911;51.036;6.972;2023-02-15T07:16:28;101950.16;;;5.48;98.56
11710;BME280;5911;51.036;6.972;2023-02-15T07:18:56;101936.44;;;5.41;98.93
11710;BME280;5911;51.036;6.972;2023-02-15T07:21:24;101946.91;;;5.41;98.37
11710;BME280;5911;51.036;6.972;2023-02-15T07:23:56;101924.66;;;5.31;98.76
11710;BME280;5911;51.036;6.972;2023-02-15T07:26:23;101943.16;;;5.48;98.61
11710;BME280;5911;51.036;6.972;2023-02-15T07:28:51;101941.69;;;5.41;97.96
11710;BME280;5911;51.036;6.972;2023-02-15T07:31:19;101934.63;;;5.43;98.85
11710;BME280;5911;51.036;6.972;2023-02-15T07:33:47;101923.31;;;5.43;99.11
11710;BME280;5911;51.036;6.972;2023-02-15T07:36:15;101926.09;;;5.38;98.24
11710;BME280;5911;51.036;6.972;2023-02-15T07:38:42;101909.50;;;5.39;98.52
11710;BME280;5911;51.036;6.972;2023-02-15T07:41:14;101908.59;;;5.40;98.22
11710;BME280;5911;51.036;6.972;2023-02-15T07:43:43;101905.06;;;5.41;98.38
11710;BME280;5911;51.036;6.972;2023-02-15T07:46:13;101892.28;;;5.34;98.39
11710;BME280;5911;51.036;6.972;2023-02-15T07:48:44;101889.47;;;5.38;97.26
11710;BME280;5911;51.036;6.972;2023-02-15T07:51:13;101877.56;;;5.31;97.33
11710;BME280;5911;51.036;6.972;2023-02-15T07:53:42;101874.28;;;5.26;96.91
11710;BME280;5911;51.036;6.972;2023-02-15T07:56:13;101891.19;;;5.39;96.70
11710;BME280;5911;51.036;6.972;2023-02-15T07:58:41;101889.34;;;5.41;98.05
11710;BME280;5911;51.036;6.972;2023-02-15T08:01:30;101891.81;;;5.46;97.63
11710;BME280;5911;51.036;6.972;2023-02-15T08:03:59;101883.09;;;5.45;98.06
11710;BME280;5911;51.036;6.972;2023-02-15T08:06:29;101880.47;;;5.45;97.96
11710;BME280;5911;51.036;6.972;2023-02-15T08:08:58;101893.63;;;5.44;96.79
11710;BME280;5911;51.036;6.972;2023-02-15T08:11:29;101859.91;;;5.36;97.48
11710;BME280;5911;51.036;6.972;2023-02-15T08:14:02;101880.94;;;5.55;97.82
11710;BME280;5911;51.036;6.972;2023-02-15T08:16:32;101874.50;;;5.63;97.41
11710;BME280;5911;51.036;6.972;2023-02-15T08:19:03;101869.13;;;5.66;97.71
11710;BME280;5911;51.036;6.972;2023-02-15T08:21:38;101881.56;;;5.61;97.64
11710;BME280;5911;51.036;6.972;2023-02-15T08:24:07;101876.91;;;5.68;97.40
11710;BME280;5911;51.036;6.972;2023-02-15T08:26:37;101880.59;;;5.64;96.84
11710;BME280;5911;51.036;6.972;2023-02-15T08:29:08;101879.47;;;5.70;97.47
11710;BME280;5911;51.036;6.972;2023-02-15T08:31:36;101876.63;;;5.76;97.61
11710;BME280;5911;51.036;6.972;2023-02-15T08:34:05;101866.38;;;5.70;96.71
11710;BME280;5911;51.036;6.972;2023-02-15T08:36:33;101877.19;;;5.82;96.85
11710;BME280;5911;51.036;6.972;2023-02-15T08:39:03;101872.69;;;5.86;97.58
11710;BME280;5911;51.036;6.972;2023-02-15T08:41:33;101860.53;;;5.85;97.34
11710;BME280;5911;51.036;6.972;2023-02-15T08:44:05;101859.50;;;5.89;97.47
11710;BME280;5911;51.036;6.972;2023-02-15T08:46:35;101863.66;;;5.94;97.14
11710;BME280;5911;51.036;6.972;2023-02-15T08:49:03;101863.50;;;5.97;96.68
11710;BME280;5911;51.036;6.972;2023-02-15T08:51:33;101840.50;;;5.84;95.94
11710;BME280;5911;51.036;6.972;2023-02-15T08:54:04;101859.84;;;6.02;95.59
11710;BME280;5911;51.036;6.972;2023-02-15T08:56:37;101845.22;;;5.96;95.16
11710;BME280;5911;51.036;6.972;2023-02-15T08:59:07;101862.16;;;6.09;95.12
11710;BME280;5911;51.036;6.972;2023-02-15T09:01:38;101853.50;;;6.07;94.64
11710;BME280;5911;51.036;6.972;2023-02-15T09:04:07;101868.69;;;6.19;95.10
11710;BME280;5911;51.036;6.972;2023-02-15T09:06:36;101870.25;;;6.23;94.65
11710;BME280;5911;51.036;6.972;2023-02-15T09:09:05;101861.50;;;6.24;94.75
11710;BME280;5911;51.036;6.972;2023-02-15T09:11:39;101855.22;;;6.27;95.45
11710;BME280;5911;51.036;6.972;2023-02-15T09:14:10;101868.81;;;6.37;95.26
11710;BME280;5911;51.036;6.972;2023-02-15T09:16:41;101864.19;;;6.42;95.35
11710;BME280;5911;51.036;6.972;2023-02-15T09:19:11;101864.91;;;6.45;94.99
11710;BME280;5911;51.036;6.972;2023-02-15T09:21:40;101858.63;;;6.49;94.69
11710;BME280;5911;51.036;6.972;2023-02-15T09:24:09;101854.88;;;6.55;94.30
11710;BME280;5911;51.036;6.972;2023-02-15T09:26:39;101858.13;;;6.60;93.06
11710;BME280;5911;51.036;6.972;2023-02-15T09:29:10;101863.97;;;6.66;92.09
11710;BME280;5911;51.036;6.972;2023-02-15T09:31:40;101857.59;;;6.72;92.95
11710;BME280;5911;51.036;6.972;2023-02-15T09:34:11;101872.19;;;6.78;93.02
11710;BME280;5911;51.036;6.972;2023-02-15T09:36:40;101871.91;;;6.84;92.13
11710;BME280;5911;51.036;6.972;2023-02-15T09:39:09;101879.56;;;6.88;92.94
11710;BME280;5911;51.036;6.972;2023-02-15T09:41:59;101872.97;;;6.98;92.45
11710;BME280;5911;51.036;6.972;2023-02-15T09:44:49;101873.38;;;7.08;92.29
11710;BME280;5911;51.036;6.972;2023-02-15T09:47:37;101864.09;;;7.20;91.53
11710;BME280;5911;51.036;6.972;2023-02-15T09:50:13;101871.75;;;7.24;90.07
11710;BME280;5911;51.036;6.972;2023-02-15T09:52:55;101864.91;;;7.39;90.69
11710;BME280;5911;51.036;6.972;2023-02-15T09:55:40;101872.03;;;7.54;89.86
11710;BME280;5911;51.036;6.972;2023-02-15T09:58:16;101868.81;;;7.66;89.29
11710;BME280;5911;51.036;6.972;2023-02-15T10:00:54;101851.75;;;7.75;87.75
11710;BME280;5911;51.036;6.972;2023-02-15T10:03:39;101862.44;;;7.89;86.23
11710;BME280;5911;51.036;6.972;2023-02-15T10:06:26;101865.81;;;8.08;86.09
11710;BME280;5911;51.036;6.972;2023-02-15T10:09:06;101875.56;;;8.24;84.68
11710;BME280;5911;51.036;6.972;2023-02-15T10:11:45;101866.13;;;8.37;85.38
11710;BME280;5911;51.036;6.972;2023-02-15T10:14:37;101863.00;;;8.46;85.15
11710;BME280;5911;51.036;6.972;2023-02-15T10:17:19;101859.91;;;8.55;82.84
11710;BME280;5911;51.036;6.972;2023-02-15T10:19:59;101868.00;;;8.68;81.79
11710;BME280;5911;51.036;6.972;2023-02-15T10:22:38;101854.84;;;8.84;81.88
11710;BME280;5911;51.036;6.972;2023-02-15T10:25:26;101857.59;;;8.98;80.17
11710;BME280;5911;51.036;6.972;2023-02-15T10:28:03;101872.00;;;9.06;77.98
11710;BME280;5911;51.036;6.972;2023-02-15T10:30:41;101863.69;;;8.98;77.75
11710;BME280;5911;51.036;6.972;2023-02-15T10:33:20;101865.56;;;9.28;78.93
11710;BME280;5911;51.036;6.972;2023-02-15T10:35:58;101859.69;;;9.38;77.58
11710;BME280;5911;51.036;6.972;2023-02-15T10:38:34;101855.06;;;9.58;79.48
11710;BME280;5911;51.036;6.972;2023-02-15T10:41:15;101853.72;;;9.80;77.00
11710;BME280;5911;51.036;6.972;2023-02-15T10:44:00;101859.03;;;9.95;76.10
11710;BME280;5911;51.036;6.972;2023-02-15T10:46:45;101861.69;;;10.09;75.24
11710;BME280;5911;51.036;6.972;2023-02-15T10:49:30;101854.19;;;10.17;73.82
11710;BME280;5911;51.036;6.972;2023-02-15T10:52:14;101853.56;;;10.28;71.58
11710;BME280;5911;51.036;6.972;2023-02-15T10:54:49;101853.31;;;10.46;71.81
11710;BME280;5911;51.036;6.972;2023-02-15T10:57:32;101854.06;;;10.63;69.57
11710;BME280;5911;51.036;6.972;2023-02-15T11:00:07;101848.84;;;10.75;69.47
11710;BME280;5911;51.036;6.972;2023-02-15T11:02:49;101844.31;;;10.91;70.14
11710;BME280;5911;51.036;6.972;2023-02-15T11:05:35;101830.97;;;11.07;69.74
11710;BME280;5911;51.036;6.972;2023-02-15T11:08:17;101843.91;;;11.39;69.21
11710;BME280;5911;51.036;6.972;2023-02-15T11:10:49;101833.16;;;11.54;67.99
11710;BME280;5911;51.036;6.972;2023-02-15T11:13:20;101820.06;;;11.66;68.08
11710;BME280;5911;51.036;6.972;2023-02-15T11:15:53;101838.78;;;12.02;66.50
11710;BME280;5911;51.036;6.972;2023-02-15T11:18:25;101840.69;;;12.13;64.09
11710;BME280;5911;51.036;6.972;2023-02-15T11:21:01;101829.56;;;12.08;64.54
11710;BME280;5911;51.036;6.972;2023-02-15T11:23:31;101828.53;;;12.23;64.06
11710;BME280;5911;51.036;6.972;2023-02-15T11:26:04;101825.88;;;12.48;63.33
11710;BME280;5911;51.036;6.972;2023-02-15T11:28:34;101818.53;;;12.77;61.93
11710;BME280;5911;51.036;6.972;2023-02-15T11:31:12;101815.00;;;12.89;59.49
11710;BME280;5911;51.036;6.972;2023-02-15T11:33:44;101820.38;;;12.88;60.53
11710;BME280;5911;51.036;6.972;2023-02-15T11:36:18;101806.56;;;12.72;60.90
11710;BME280;5911;51.036;6.972;2023-02-15T11:38:51;101807.22;;;12.62;62.48
11710;BME280;5911;51.036;6.972;2023-02-15T11:41:23;101810.28;;;12.56;62.49
11710;BME280;5911;51.036;6.972;2023-02-15T11:43:56;101794.97;;;12.49;61.66
11710;BME280;5911;51.036;6.972;2023-02-15T11:46:25;101815.91;;;12.64;61.66
11710;BME280;5911;51.036;6.972;2023-02-15T11:48:53;101811.22;;;12.68;62.21
11710;BME280;5911;51.036;6.972;2023-02-15T11:51:22;101808.06;;;12.63;59.98
11710;BME280;5911;51.036;6.972;2023-02-15T11:53:51;101801.19;;;12.60;61.35
11710;BME280;5911;51.036;6.972;2023-02-15T11:56:22;101788.38;;;12.54;61.47
11710;BME280;5911;51.036;6.972;2023-02-15T11:58:53;101786.41;;;12.45;59.89
11710;BME280;5911;51.036;6.972;2023-02-15T12:01:29;101786.91;;;12.63;62.46
11710;BME280;5911;51.036;6.972;2023-02-15T12:03:59;101786.91;;;12.87;61.83
11710;BME280;5911;51.036;6.972;2023-02-15T12:06:33;101787.69;;;13.36;60.71
11710;BME280;5911;51.036;6.972;2023-02-15T12:09:05;101789.94;;;13.54;59.26
11710;BME280;5911;51.036;6.972;2023-02-15T12:11:36;101774.03;;;13.54;57.71
11710;BME280;5911;51.036;6.972;2023-02-15T12:14:05;101779.53;;;13.75;57.94
11710;BME280;5911;51.036;6.972;2023-02-15T12:16:41;101771.69;;;13.84;57.84
11710;BME280;5911;51.036;6.972;2023-02-15T12:19:25;101769.59;;;13.77;56.49
11710;BME280;5911;51.036;6.972;2023-02-15T12:21:57;101772.94;;;14.02;57.79
11710;BME280;5911;51.036;6.972;2023-02-15T12:24:28;101762.88;;;13.84;57.42
11710;BME280;5911;51.036;6.972;2023-02-15T12:27:00;101766.09;;;13.65;56.87
11710;BME280;5911;51.036;6.972;2023-02-15T12:29:30;101762.72;;;13.63;57.11
11710;BME280;5911;51.036;6.972;2023-02-15T12:32:00;101759.09;;;13.64;58.13
11710;BME280;5911;51.036;6.972;2023-02-15T12:34:30;101756.75;;;13.94;58.13
11710;BME280;5911;51.036;6.972;2023-02-15T12:37:08;101753.63;;;13.89;57.36
11710;BME280;5911;51.036;6.972;2023-02-15T12:39:51;101752.66;;;14.01;58.63
11710;BME280;5911;51.036;6.972;2023-02-15T12:42:19;101742.16;;;14.00;58.18
11710;BME280;5911;51.036;6.972;2023-02-15T12:45:00;101744.44;;;13.93;58.17
11710;BME280;5911;51.036;6.972;2023-02-15T12:47:28;101730.09;;;13.85;57.45
11710;BME280;5911;51.036;6.972;2023-02-15T12:50:07;101729.75;;;14.00;57.27
11710;BME280;5911;51.036;6.972;2023-02-15T12:52:39;101734.22;;;13.89;58.31
11710;BME280;5911;51.036;6.972;2023-02-15T12:55:11;101726.84;;;13.92;56.42
11710;BME280;5911;51.036;6.972;2023-02-15T12:57:45;101719.25;;;13.88;57.08
11710;BME280;5911;51.036;6.972;2023-02-15T13:00:29;101720.81;;;13.79;58.42
11710;BME280;5911;51.036;6.972;2023-02-15T13:03:00;101718.63;;;13.73;57.84
11710;BME280;5911;51.036;6.972;2023-02-15T13:05:32;101715.88;;;13.86;57.83
11710;BME280;5911;51.036;6.972;2023-02-15T13:08:08;101714.75;;;13.77;59.14
11710;BME280;5911;51.036;6.972;2023-02-15T13:10:41;101705.63;;;13.70;58.20
11710;BME280;5911;51.036;6.972;2023-02-15T13:13:11;101702.47;;;13.65;59.03
11710;BME280;5911;51.036;6.972;2023-02-15T13:15:46;101704.03;;;13.56;58.86
11710;BME280;5911;51.036;6.972;2023-02-15T13:18:18;101697.25;;;13.52;58.57
11710;BME280;5911;51.036;6.972;2023-02-15T13:20:48;101694.28;;;13.57;59.39
11710;BME280;5911;51.036;6.972;2023-02-15T13:23:25;101695.97;;;13.69;58.91
11710;BME280;5911;51.036;6.972;2023-02-15T13:25:56;101685.84;;;13.74;59.73
11710;BME280;5911;51.036;6.972;2023-02-15T13:28:31;101679.31;;;13.78;58.46
11710;BME280;5911;51.036;6.972;2023-02-15T13:31:02;101678.38;;;13.79;58.11
11710;BME280;5911;51.036;6.972;2023-02-15T13:33:33;101681.41;;;13.75;57.47
11710;BME280;5911;51.036;6.972;2023-02-15T13:36:06;101679.31;;;13.67;57.34
11710;BME280;5911;51.036;6.972;2023-02-15T13:38:46;101670.19;;;13.71;57.68
11710;BME280;5911;51.036;6.972;2023-02-15T13:41:21;101669.34;;;13.70;58.11